createdAt,value
2022-09-01T00:00:03.370Z,101691.05
2022-09-01T00:02:31.646Z,101688.04
2022-09-01T00:04:59.681Z,101691.67
2022-09-01T00:07:31.130Z,101684.12
2022-09-01T00:10:00.224Z,101680.78
2022-09-01T00:12:28.250Z,101688.40
2022-09-01T00:14:56.482Z,101680.65
2022-09-01T00:17:24.271Z,101684.37
2022-09-01T00:19:52.095Z,101686.41
2022-09-01T00:22:19.859Z,101690.88
2022-09-01T00:24:47.730Z,101682.97
2022-09-01T00:27:15.431Z,101694.58
2022-09-01T00:29:44.055Z,101683.52
2022-09-01T00:32:12.697Z,101692.29
2022-09-01T00:34:40.665Z,101688.56
2022-09-01T00:37:08.671Z,101689.38
2022-09-01T00:39:36.462Z,101685.20
2022-09-01T00:42:04.723Z,101681.73
2022-09-01T00:44:32.477Z,101679.24
2022-09-01T00:47:00.714Z,101682.97
2022-09-01T00:49:35.315Z,101680.81
2022-09-01T00:52:09.906Z,101680.32
2022-09-01T00:54:41.088Z,101680.72
2022-09-01T00:57:09.509Z,101685.65
2022-09-01T00:59:37.588Z,101679.60
2022-09-01T01:02:05.541Z,101684.45
2022-09-01T01:04:33.373Z,101679.15
2022-09-01T01:07:03.897Z,101683.20
2022-09-01T01:09:34.418Z,101692.26
2022-09-01T01:12:02.400Z,101687.55
2022-09-01T01:14:33.007Z,101692.88
2022-09-01T01:17:01.980Z,101695.76
2022-09-01T01:20:01.627Z,101696.21
2022-09-01T01:22:52.806Z,101699.02
2022-09-01T01:25:23.151Z,101697.45
2022-09-01T01:27:51.360Z,101686.05
2022-09-01T01:30:20.157Z,101690.95
2022-09-01T01:32:48.667Z,101682.80
2022-09-01T01:35:17.460Z,101677.02
2022-09-01T01:37:47.648Z,101681.96
2022-09-01T01:40:19.243Z,101676.20
2022-09-01T01:42:47.866Z,101686.17
2022-09-01T01:45:18.337Z,101681.24
2022-09-01T01:47:52.788Z,101686.24
2022-09-01T01:50:25.162Z,101687.19
2022-09-01T01:52:58.179Z,101683.95
2022-09-01T01:55:30.005Z,101684.67
2022-09-01T01:57:58.695Z,101683.07
2022-09-01T02:00:30.128Z,101682.35
2022-09-01T02:02:58.806Z,101684.31
2022-09-01T02:05:28.809Z,101692.84
2022-09-01T02:07:57.746Z,101691.54
2022-09-01T02:10:31.996Z,101688.50
2022-09-01T02:13:08.950Z,101694.74
2022-09-01T02:15:45.478Z,101690.27
2022-09-01T02:18:20.515Z,101693.63
2022-09-01T02:20:50.446Z,101689.25
2022-09-01T02:23:21.332Z,101684.21
2022-09-01T02:26:14.436Z,101680.84
2022-09-01T02:28:38.252Z,101689.80
2022-09-01T02:31:06.358Z,101689.58
2022-09-01T02:33:34.219Z,101679.27
2022-09-01T02:36:03.905Z,101679.27
2022-09-01T02:38:34.907Z,101678.33
2022-09-01T02:41:03.454Z,101674.99
2022-09-01T02:43:32.801Z,101677.87
2022-09-01T02:46:01.859Z,101676.56
2022-09-01T02:48:33.994Z,101665.77
2022-09-01T02:51:03.207Z,101673.59
2022-09-01T02:53:31.951Z,101659.73
2022-09-01T02:56:00.568Z,101667.80
2022-09-01T02:58:28.727Z,101671.07
2022-09-01T03:00:57.593Z,101665.67
2022-09-01T03:03:25.786Z,101668.45
2022-09-01T03:05:57.364Z,101673.39
2022-09-01T03:08:25.725Z,101672.15
2022-09-01T03:10:54.964Z,101656.81
2022-09-01T03:13:24.871Z,101657.66
2022-09-01T03:15:52.606Z,101658.74
2022-09-01T03:18:20.598Z,101658.65
2022-09-01T03:20:48.610Z,101650.83
2022-09-01T03:23:19.265Z,101653.28
2022-09-01T03:25:48.436Z,101657.83
2022-09-01T03:28:16.424Z,101659.85
2022-09-01T03:30:48.640Z,101671.01
2022-09-01T03:33:18.138Z,101664.07
2022-09-01T03:35:46.037Z,101660.80
2022-09-01T03:38:13.972Z,101658.02
2022-09-01T03:40:41.797Z,101662.60
2022-09-01T03:43:15.181Z,101656.09
2022-09-01T03:45:43.032Z,101651.26
2022-09-01T03:48:11.048Z,101656.29
2022-09-01T03:50:42.309Z,101652.17
2022-09-01T03:53:10.162Z,101650.05
2022-09-01T03:55:39.277Z,101656.39
2022-09-01T03:58:09.332Z,101647.82
2022-09-01T04:00:40.725Z,101654.16
2022-09-01T04:03:20.794Z,101644.48
2022-09-01T04:05:57.043Z,101649.06
2022-09-01T04:08:32.652Z,101642.46
2022-09-01T04:11:03.950Z,101646.25
2022-09-01T04:13:42.072Z,101640.59
2022-09-01T04:16:41.000Z,101636.51
2022-09-01T04:19:17.040Z,101636.97
2022-09-01T04:21:45.096Z,101637.82
2022-09-01T04:24:15.216Z,101641.16
2022-09-01T04:26:43.655Z,101641.55
2022-09-01T04:29:12.841Z,101630.00
2022-09-01T04:31:41.905Z,101633.37
2022-09-01T04:34:14.265Z,101636.67
2022-09-01T04:36:43.380Z,101639.65
2022-09-01T04:39:11.853Z,101643.84
2022-09-01T04:41:43.710Z,101645.08
2022-09-01T04:44:11.486Z,101637.27
2022-09-01T04:46:43.442Z,101643.02
2022-09-01T04:49:13.015Z,101646.38
2022-09-01T04:51:42.248Z,101636.02
2022-09-01T04:54:15.998Z,101642.66
2022-09-01T04:56:45.657Z,101639.29
2022-09-01T04:59:14.228Z,101633.63
2022-09-01T05:01:45.003Z,101641.05
2022-09-01T05:04:17.894Z,101634.45
2022-09-01T05:06:48.104Z,101641.05
2022-09-01T05:09:18.585Z,101636.97
2022-09-01T05:11:48.306Z,101651.02
2022-09-01T05:14:19.580Z,101644.26
2022-09-01T05:16:47.715Z,101644.62
2022-09-01T05:19:16.810Z,101646.32
2022-09-01T05:21:46.908Z,101643.05
2022-09-01T05:24:16.491Z,101639.78
2022-09-01T05:26:44.839Z,101642.20
2022-09-01T05:29:14.820Z,101643.12
2022-09-01T05:31:43.113Z,101642.69
2022-09-01T05:34:11.003Z,101644.36
2022-09-01T05:36:45.899Z,101644.81
2022-09-01T05:39:13.803Z,101641.45
2022-09-01T05:41:42.049Z,101640.23
2022-09-01T05:44:10.012Z,101639.98
2022-09-01T05:46:38.847Z,101635.98
2022-09-01T05:49:08.198Z,101638.47
2022-09-01T05:51:46.068Z,101631.12
2022-09-01T05:54:19.755Z,101632.42
2022-09-01T05:56:48.346Z,101640.34
2022-09-01T05:59:24.796Z,101641.64
2022-09-01T06:01:54.690Z,101641.25
2022-09-01T06:04:23.871Z,101636.09
2022-09-01T06:07:06.108Z,101629.48
2022-09-01T06:09:39.316Z,101628.34
2022-09-01T06:12:07.805Z,101632.48
2022-09-01T06:14:35.676Z,101633.27
2022-09-01T06:17:05.124Z,101637.16
2022-09-01T06:19:37.619Z,101639.68
2022-09-01T06:22:06.040Z,101632.12
2022-09-01T06:24:33.876Z,101639.06
2022-09-01T06:27:02.285Z,101649.69
2022-09-01T06:29:32.353Z,101642.10
2022-09-01T06:32:03.393Z,101645.34
2022-09-01T06:34:31.255Z,101644.13
2022-09-01T06:36:59.077Z,101637.98
2022-09-01T06:39:27.661Z,101636.38
2022-09-01T06:41:55.915Z,101637.23
2022-09-01T06:44:24.188Z,101643.37
2022-09-01T06:46:52.853Z,101637.63
2022-09-01T06:49:22.574Z,101633.50
2022-09-01T06:51:52.836Z,101639.75
2022-09-01T06:54:21.320Z,101647.17
2022-09-01T06:56:51.840Z,101647.27
2022-09-01T06:59:21.355Z,101646.52
2022-09-01T07:01:50.190Z,101647.79
2022-09-01T07:04:21.260Z,101657.01
2022-09-01T07:07:53.254Z,101655.87
2022-09-01T07:09:47.826Z,101653.05
2022-09-01T07:12:28.268Z,101658.65
2022-09-01T07:17:51.182Z,101667.77
2022-09-01T07:20:24.000Z,101668.88
2022-09-01T07:23:08.142Z,101670.02
2022-09-01T07:28:36.775Z,101675.45
2022-09-01T07:39:51.763Z,101667.93
2022-09-01T07:45:28.319Z,101678.66
2022-09-01T07:47:56.901Z,101677.87
2022-09-01T07:53:29.268Z,101682.41
2022-09-01T07:55:57.389Z,101687.02
2022-09-01T07:58:27.259Z,101685.95
2022-09-01T08:00:55.683Z,101684.37
2022-09-01T08:03:25.238Z,101683.13
2022-09-01T08:05:58.678Z,101687.94
2022-09-01T08:08:29.271Z,101683.27
2022-09-01T08:11:04.921Z,101691.51
2022-09-01T08:13:38.836Z,101696.97
2022-09-01T08:16:16.859Z,101694.05
2022-09-01T08:18:49.815Z,101691.60
2022-09-01T08:21:18.439Z,101689.38
2022-09-01T08:23:46.322Z,101696.24
2022-09-01T08:26:15.600Z,101686.50
2022-09-01T08:28:54.393Z,101687.09
2022-09-01T08:31:23.097Z,101695.52
2022-09-01T08:33:51.225Z,101697.65
2022-09-01T08:36:23.720Z,101699.19
2022-09-01T08:38:53.007Z,101701.64
2022-09-01T08:41:51.559Z,101700.27
2022-09-01T08:44:31.545Z,101702.91
2022-09-01T08:47:03.839Z,101703.80
2022-09-01T08:49:42.604Z,101705.99
2022-09-01T08:52:29.050Z,101701.77
2022-09-01T08:54:58.819Z,101703.73
2022-09-01T08:57:40.768Z,101705.76
2022-09-01T09:00:14.279Z,101709.36
2022-09-01T09:03:01.283Z,101705.53
2022-09-01T09:05:50.019Z,101708.34
2022-09-01T09:08:53.457Z,101711.98
2022-09-01T09:11:33.229Z,101702.95
2022-09-01T09:14:00.870Z,101708.64
2022-09-01T09:16:33.922Z,101700.01
2022-09-01T09:19:25.049Z,101714.13
2022-09-01T09:21:54.307Z,101707.43
2022-09-01T09:24:48.280Z,101718.09
2022-09-01T09:27:28.210Z,101706.64
2022-09-01T09:30:08.326Z,101716.65
2022-09-01T09:35:52.922Z,101715.37
2022-09-01T09:38:30.143Z,101705.40
2022-09-01T09:41:18.788Z,101704.91
2022-09-01T09:44:11.302Z,101703.54
2022-09-01T09:46:40.573Z,101702.62
2022-09-01T09:49:36.553Z,101701.48
2022-09-01T09:52:11.265Z,101694.12
2022-09-01T09:54:41.049Z,101700.56
2022-09-01T09:57:13.820Z,101686.11
2022-09-01T10:00:04.852Z,101682.05
2022-09-01T10:02:35.506Z,101681.66
2022-09-01T10:05:22.109Z,101686.66
2022-09-01T10:07:50.175Z,101678.33
2022-09-01T10:10:31.567Z,101679.60
2022-09-01T10:12:59.770Z,101678.66
2022-09-01T10:15:30.172Z,101677.97
2022-09-01T10:21:33.073Z,101680.68
2022-09-01T10:24:20.287Z,101677.64
2022-09-01T10:26:50.807Z,101685.39
2022-09-01T10:29:48.987Z,101674.14
2022-09-01T10:32:38.622Z,101664.56
2022-09-01T10:35:25.610Z,101667.12
2022-09-01T10:37:53.620Z,101671.33
2022-09-01T10:40:43.485Z,101670.13
2022-09-01T10:43:37.838Z,101663.87
2022-09-01T10:46:38.770Z,101664.27
2022-09-01T10:49:29.715Z,101662.66
2022-09-01T10:52:03.183Z,101664.83
2022-09-01T10:54:50.885Z,101668.52
2022-09-01T10:57:28.000Z,101656.45
2022-09-01T10:59:59.087Z,101659.40
2022-09-01T11:02:28.817Z,101667.27
2022-09-01T11:05:02.609Z,101657.34
2022-09-01T11:07:58.108Z,101651.02
2022-09-01T11:10:33.623Z,101653.41
2022-09-01T11:13:26.168Z,101646.16
2022-09-01T11:15:54.067Z,101643.12
2022-09-01T11:18:30.562Z,101650.47
2022-09-01T11:21:27.486Z,101645.17
2022-09-01T11:24:39.378Z,101651.19
2022-09-01T11:27:11.909Z,101657.63
2022-09-01T11:30:03.954Z,101659.17
2022-09-01T11:32:36.948Z,101651.95
2022-09-01T11:35:06.682Z,101642.10
2022-09-01T11:37:34.604Z,101638.90
2022-09-01T11:40:03.505Z,101634.68
2022-09-01T11:42:35.827Z,101638.93
2022-09-01T11:45:06.626Z,101637.69
2022-09-01T11:47:45.265Z,101630.46
2022-09-01T11:50:31.087Z,101633.08
2022-09-01T11:53:05.554Z,101627.98
2022-09-01T11:55:34.712Z,101630.04
2022-09-01T11:58:02.505Z,101633.86
2022-09-01T12:00:39.555Z,101629.45
2022-09-01T12:03:21.029Z,101631.51
2022-09-01T12:05:51.729Z,101632.98
2022-09-01T12:08:23.970Z,101634.35
2022-09-01T12:10:52.517Z,101620.69
2022-09-01T12:13:23.083Z,101627.39
2022-09-01T12:16:21.641Z,101625.03
2022-09-01T12:18:52.524Z,101626.93
2022-09-01T12:21:28.143Z,101629.32
2022-09-01T12:23:56.545Z,101630.13
2022-09-01T12:26:28.786Z,101624.34
2022-09-01T12:28:56.566Z,101640.23
2022-09-01T12:31:25.465Z,101631.77
2022-09-01T12:33:53.986Z,101628.92
2022-09-01T12:36:29.273Z,101625.95
2022-09-01T12:39:18.922Z,101629.25
2022-09-01T12:41:48.594Z,101629.80
2022-09-01T12:44:34.342Z,101615.32
2022-09-01T12:47:10.660Z,101626.63
2022-09-01T12:49:50.828Z,101632.85
2022-09-01T12:52:28.625Z,101631.51
2022-09-01T12:54:59.459Z,101629.91
2022-09-01T12:57:32.537Z,101633.70
2022-09-01T13:00:27.542Z,101623.30
2022-09-01T13:02:58.399Z,101626.11
2022-09-01T13:05:41.587Z,101627.95
2022-09-01T13:08:14.502Z,101624.84
2022-09-01T13:10:49.950Z,101615.75
2022-09-01T13:13:18.087Z,101615.81
2022-09-01T13:15:49.231Z,101624.61
2022-09-01T13:18:18.305Z,101622.98
2022-09-01T13:20:46.960Z,101621.63
2022-09-01T13:23:15.065Z,101622.19
2022-09-01T13:25:45.492Z,101617.61
2022-09-01T13:28:14.306Z,101628.92
2022-09-01T13:30:42.426Z,101624.87
2022-09-01T13:33:22.787Z,101614.38
2022-09-01T13:35:51.441Z,101617.45
2022-09-01T13:38:19.591Z,101617.74
2022-09-01T13:40:48.105Z,101601.62
2022-09-01T13:43:17.102Z,101602.15
2022-09-01T13:45:45.243Z,101611.56
2022-09-01T13:48:17.250Z,101600.38
2022-09-01T13:53:34.684Z,101600.71
2022-09-01T13:56:02.840Z,101604.83
2022-09-01T13:58:30.623Z,101597.18
2022-09-01T14:01:01.107Z,101603.75
2022-09-01T14:03:29.024Z,101595.28
2022-09-01T14:05:56.877Z,101595.64
2022-09-01T14:08:24.749Z,101594.13
2022-09-01T14:10:53.377Z,101585.73
2022-09-01T14:13:22.249Z,101590.21
2022-09-01T14:15:50.386Z,101587.37
2022-09-01T14:18:18.421Z,101587.07
2022-09-01T14:20:48.063Z,101585.87
2022-09-01T14:23:16.056Z,101575.92
2022-09-01T14:25:48.673Z,101585.93
2022-09-01T14:28:20.341Z,101582.04
2022-09-01T14:30:48.817Z,101580.86
2022-09-01T14:33:16.646Z,101574.59
2022-09-01T14:35:46.708Z,101578.93
2022-09-01T14:38:15.118Z,101580.86
2022-09-01T14:40:43.366Z,101569.68
2022-09-01T14:43:15.183Z,101576.58
2022-09-01T14:45:45.830Z,101572.59
2022-09-01T14:48:13.704Z,101567.88
2022-09-01T14:50:45.463Z,101581.48
2022-09-01T14:53:13.637Z,101580.89
2022-09-01T14:55:44.114Z,101581.12
2022-09-01T14:58:12.046Z,101579.55
2022-09-01T15:00:40.214Z,101576.22
2022-09-01T15:03:08.550Z,101573.70
2022-09-01T15:05:40.216Z,101576.28
2022-09-01T15:08:22.014Z,101573.05
2022-09-01T15:10:50.264Z,101575.59
2022-09-01T15:13:18.254Z,101567.33
2022-09-01T15:15:46.133Z,101563.17
2022-09-01T15:18:13.936Z,101564.91
2022-09-01T15:20:46.405Z,101560.36
2022-09-01T15:23:15.153Z,101556.21
2022-09-01T15:25:43.027Z,101556.66
2022-09-01T15:28:11.011Z,101557.16
2022-09-01T15:30:39.459Z,101551.80
2022-09-01T15:33:09.865Z,101565.98
2022-09-01T15:35:41.080Z,101554.34
2022-09-01T15:38:08.913Z,101549.34
2022-09-01T15:40:40.783Z,101558.56
2022-09-01T15:43:08.769Z,101556.90
2022-09-01T15:45:36.876Z,101549.84
2022-09-01T15:48:04.723Z,101557.81
2022-09-01T15:50:32.651Z,101539.47
2022-09-01T15:53:02.712Z,101547.38
2022-09-01T15:55:41.969Z,101548.66
2022-09-01T15:58:10.675Z,101542.84
2022-09-01T16:00:38.521Z,101542.45
2022-09-01T16:03:06.855Z,101540.35
2022-09-01T16:05:36.137Z,101550.35
2022-09-01T16:08:05.888Z,101548.69
2022-09-01T16:10:36.556Z,101544.93
2022-09-01T16:13:05.133Z,101541.59
2022-09-01T16:15:33.636Z,101548.69
2022-09-01T16:18:14.644Z,101549.96
2022-09-01T16:20:56.421Z,101550.78
2022-09-01T16:23:25.607Z,101544.11
2022-09-01T16:25:54.868Z,101537.05
2022-09-01T16:28:36.774Z,101547.45
2022-09-01T16:31:06.580Z,101546.59
2022-09-01T16:33:34.392Z,101546.63
2022-09-01T16:36:09.554Z,101549.93
2022-09-01T16:39:14.366Z,101550.78
2022-09-01T16:41:56.269Z,101551.20
2022-09-01T16:44:41.185Z,101542.87
2022-09-01T16:47:17.902Z,101538.72
2022-09-01T16:50:08.721Z,101540.80
2022-09-01T16:52:48.688Z,101537.87
2022-09-01T16:55:26.794Z,101538.68
2022-09-01T16:58:17.067Z,101539.89
2022-09-01T17:01:27.786Z,101533.65
2022-09-01T17:03:58.347Z,101536.95
2022-09-01T17:07:04.326Z,101532.83
2022-09-01T17:09:57.447Z,101532.80
2022-09-01T17:12:42.243Z,101539.86
2022-09-01T17:15:13.844Z,101529.49
2022-09-01T17:17:45.874Z,101533.62
2022-09-01T17:20:15.077Z,101539.83
2022-09-01T17:22:53.807Z,101532.73
2022-09-01T17:25:30.019Z,101529.82
2022-09-01T17:28:03.930Z,101527.73
2022-09-01T17:30:33.138Z,101531.88
2022-09-01T17:33:02.708Z,101534.37
2022-09-01T17:36:15.997Z,101529.79
2022-09-01T17:38:55.276Z,101536.82
2022-09-01T17:41:46.399Z,101526.00
2022-09-01T17:44:36.754Z,101537.60
2022-09-01T17:47:13.108Z,101549.18
2022-09-01T17:49:52.941Z,101538.78
2022-09-01T17:52:38.625Z,101536.23
2022-09-01T17:55:26.863Z,101546.59
2022-09-01T17:58:00.009Z,101544.11
2022-09-01T18:00:29.647Z,101547.02
2022-09-01T18:03:20.060Z,101545.74
2022-09-01T18:06:00.938Z,101545.71
2022-09-01T18:08:41.242Z,101547.34
2022-09-01T18:11:15.324Z,101553.13
2022-09-01T18:14:17.900Z,101546.43
2022-09-01T18:17:10.237Z,101551.80
2022-09-01T18:19:40.874Z,101552.16
2022-09-01T18:22:14.875Z,101546.76
2022-09-01T18:24:59.681Z,101551.27
2022-09-01T18:27:31.372Z,101550.84
2022-09-01T18:30:02.389Z,101554.15
2022-09-01T18:32:39.925Z,101557.84
2022-09-01T18:35:12.725Z,101562.81
2022-09-01T18:38:08.693Z,101558.66
2022-09-01T18:41:02.687Z,101566.48
2022-09-01T18:43:44.560Z,101563.99
2022-09-01T18:46:15.352Z,101564.68
2022-09-01T18:49:17.241Z,101566.73
2022-09-01T18:52:06.644Z,101563.80
2022-09-01T18:54:53.056Z,101573.70
2022-09-01T18:57:22.425Z,101575.73
2022-09-01T19:00:22.894Z,101573.24
2022-09-01T19:03:24.226Z,101571.54
2022-09-01T19:06:08.266Z,101567.78
2022-09-01T19:09:15.508Z,101571.48
2022-09-01T19:12:11.652Z,101577.27
2022-09-01T19:14:42.175Z,101575.95
2022-09-01T19:17:37.164Z,101579.65
2022-09-01T19:20:16.895Z,101584.55
2022-09-01T19:23:06.380Z,101583.25
2022-09-01T19:25:40.012Z,101577.04
2022-09-01T19:28:40.921Z,101575.30
2022-09-01T19:31:58.409Z,101578.18
2022-09-01T19:34:28.094Z,101578.15
2022-09-01T19:36:58.106Z,101576.84
2022-09-01T19:39:30.070Z,101580.53
2022-09-01T19:42:14.662Z,101569.29
2022-09-01T19:45:13.593Z,101570.50
2022-09-01T19:47:48.978Z,101567.55
2022-09-01T19:50:42.251Z,101568.37
2022-09-01T19:53:26.274Z,101574.09
2022-09-01T19:55:53.969Z,101573.99
2022-09-01T19:58:25.711Z,101571.51
2022-09-01T20:00:56.955Z,101571.90
2022-09-01T20:03:35.399Z,101571.02
2022-09-01T20:06:09.518Z,101571.45
2022-09-01T20:08:44.938Z,101570.17
2022-09-01T20:11:42.127Z,101567.23
2022-09-01T20:14:22.016Z,101563.44
2022-09-01T20:16:54.606Z,101568.80
2022-09-01T20:19:42.407Z,101560.88
2022-09-01T20:22:19.406Z,101559.61
2022-09-01T20:24:48.322Z,101565.79
2022-09-01T20:27:39.527Z,101559.12
2022-09-01T20:30:10.111Z,101543.75
2022-09-01T20:32:52.747Z,101551.60
2022-09-01T20:35:24.833Z,101545.35
2022-09-01T20:38:00.885Z,101551.96
2022-09-01T20:40:33.709Z,101546.92
2022-09-01T20:43:21.414Z,101553.56
2022-09-01T20:45:51.002Z,101543.23
2022-09-01T20:48:28.573Z,101546.04
2022-09-01T20:50:59.278Z,101545.16
2022-09-01T20:53:37.961Z,101544.27
2022-09-01T20:56:43.643Z,101552.05
2022-09-01T20:59:18.382Z,101550.81
2022-09-01T21:02:01.028Z,101542.90
2022-09-01T21:04:39.488Z,101552.35
2022-09-01T21:07:22.917Z,101548.63
2022-09-01T21:10:05.421Z,101545.65
2022-09-01T21:12:42.377Z,101539.44
2022-09-01T21:15:35.053Z,101542.61
2022-09-01T21:18:21.497Z,101538.88
2022-09-01T21:20:59.202Z,101539.17
2022-09-01T21:23:28.922Z,101534.17
2022-09-01T21:25:56.709Z,101535.31
2022-09-01T21:28:27.530Z,101536.20
2022-09-01T21:30:56.193Z,101534.07
2022-09-01T21:33:25.301Z,101534.07
2022-09-01T21:35:53.072Z,101535.28
2022-09-01T21:38:20.856Z,101533.98
2022-09-01T21:40:48.789Z,101543.88
2022-09-01T21:43:24.867Z,101543.39
2022-09-01T21:45:52.646Z,101549.18
2022-09-01T21:48:20.568Z,101537.18
2022-09-01T21:50:48.831Z,101537.48
2022-09-01T21:53:17.185Z,101539.86
2022-09-01T21:55:44.964Z,101541.46
2022-09-01T21:58:12.765Z,101538.20
2022-09-01T22:00:40.791Z,101530.34
2022-09-01T22:03:08.945Z,101527.77
2022-09-01T22:05:42.575Z,101528.09
2022-09-01T22:08:13.267Z,101527.20
2022-09-01T22:10:50.481Z,101521.81
2022-09-01T22:13:19.132Z,101521.71
2022-09-01T22:15:49.121Z,101522.89
2022-09-01T22:18:17.520Z,101523.67
2022-09-01T22:20:45.543Z,101519.88
2022-09-01T22:23:13.757Z,101521.02
2022-09-01T22:25:43.836Z,101532.14
2022-09-01T22:28:11.708Z,101530.87
2022-09-01T22:30:45.506Z,101524.23
2022-09-01T22:33:13.917Z,101523.35
2022-09-01T22:35:45.552Z,101523.64
2022-09-01T22:38:13.421Z,101522.76
2022-09-01T22:40:52.509Z,101514.84
2022-09-01T22:43:20.648Z,101511.02
2022-09-01T22:45:49.574Z,101521.29
2022-09-01T22:48:18.607Z,101517.85
2022-09-01T22:50:46.526Z,101519.91
2022-09-01T22:53:15.615Z,101519.85
2022-09-01T22:55:45.201Z,101517.79
2022-09-01T22:58:13.158Z,101523.12
2022-09-01T23:00:45.085Z,101519.33
2022-09-01T23:03:13.066Z,101519.26
2022-09-01T23:05:40.853Z,101529.89
2022-09-01T23:08:08.696Z,101529.46
2022-09-01T23:10:36.512Z,101525.73
2022-09-01T23:13:04.253Z,101528.16
2022-09-01T23:15:32.377Z,101523.97
2022-09-01T23:18:00.241Z,101511.58
2022-09-01T23:20:28.163Z,101514.42
2022-09-01T23:22:56.018Z,101513.93
2022-09-01T23:25:24.077Z,101508.93
2022-09-01T23:27:51.916Z,101511.35
2022-09-01T23:30:19.785Z,101501.80
2022-09-01T23:32:47.552Z,101505.82
2022-09-01T23:35:16.528Z,101500.33
2022-09-01T23:37:44.399Z,101501.12
2022-09-01T23:40:13.276Z,101510.89
2022-09-01T23:42:42.514Z,101506.54
2022-09-01T23:45:10.818Z,101504.35
2022-09-01T23:47:38.993Z,101493.34
2022-09-01T23:50:07.231Z,101498.95
2022-09-01T23:52:35.706Z,101497.68
2022-09-01T23:55:03.520Z,101494.31
2022-09-01T23:57:31.323Z,101496.18
2022-09-01T23:59:59.119Z,101489.45
